sensor_id;sensor_type;location;lat;lon;timestamp;P1;durP1;ratioP1;P2;durP2;ratioP2
58242;SDS011;50118;53.232;8.252;2022-07-12T00:03:08;2.65;;;1.90;;
58242;SDS011;50118;53.232;8.252;2022-07-12T00:05:20;2.88;;;1.80;;
58242;SDS011;50118;53.232;8.252;2022-07-12T00:07:46;2.40;;;1.88;;
58242;SDS011;50118;53.232;8.252;2022-07-12T00:10:14;4.88;;;2.25;;
58242;SDS011;50118;53.232;8.252;2022-07-12T00:12:40;4.97;;;2.30;;
58242;SDS011;50118;53.232;8.252;2022-07-12T00:15:06;3.42;;;2.00;;
58242;SDS011;50118;53.232;8.252;2022-07-12T00:17:32;3.70;;;2.05;;
58242;SDS011;50118;53.232;8.252;2022-07-12T00:19:58;3.70;;;2.08;;
58242;SDS011;50118;53.232;8.252;2022-07-12T00:22:23;2.17;;;1.70;;
58242;SDS011;50118;53.232;8.252;2022-07-12T00:24:50;3.28;;;2.03;;
58242;SDS011;50118;53.232;8.252;2022-07-12T00:27:15;3.33;;;2.13;;
58242;SDS011;50118;53.232;8.252;2022-07-12T00:29:41;2.63;;;2.05;;
58242;SDS011;50118;53.232;8.252;2022-07-12T00:32:06;3.08;;;2.20;;
58242;SDS011;50118;53.232;8.252;2022-07-12T00:37:32;2.88;;;2.00;;
58242;SDS011;50118;53.232;8.252;2022-07-12T00:39:58;3.40;;;2.22;;
58242;SDS011;50118;53.232;8.252;2022-07-12T00:42:24;3.30;;;2.10;;
58242;SDS011;50118;53.232;8.252;2022-07-12T00:44:51;3.00;;;2.00;;
58242;SDS011;50118;53.232;8.252;2022-07-12T00:50:09;3.03;;;1.98;;
58242;SDS011;50118;53.232;8.252;2022-07-12T00:52:37;2.77;;;2.00;;
58242;SDS011;50118;53.232;8.252;2022-07-12T00:55:03;3.53;;;2.13;;
58242;SDS011;50118;53.232;8.252;2022-07-12T01:03:47;2.85;;;2.10;;
58242;SDS011;50118;53.232;8.252;2022-07-12T01:06:12;5.03;;;2.10;;
58242;SDS011;50118;53.232;8.252;2022-07-12T01:08:38;3.35;;;1.90;;
58242;SDS011;50118;53.232;8.252;2022-07-12T01:11:05;3.10;;;1.95;;
58242;SDS011;50118;53.232;8.252;2022-07-12T01:13:31;3.15;;;1.90;;
58242;SDS011;50118;53.232;8.252;2022-07-12T01:15:57;3.75;;;2.00;;
58242;SDS011;50118;53.232;8.252;2022-07-12T01:18:23;3.30;;;2.13;;
58242;SDS011;50118;53.232;8.252;2022-07-12T01:20:52;2.70;;;1.90;;
58242;SDS011;50118;53.232;8.252;2022-07-12T01:23:18;3.13;;;2.08;;
58242;SDS011;50118;53.232;8.252;2022-07-12T01:25:45;2.90;;;2.00;;
58242;SDS011;50118;53.232;8.252;2022-07-12T01:28:11;3.13;;;1.80;;
58242;SDS011;50118;53.232;8.252;2022-07-12T01:30:37;2.88;;;2.05;;
58242;SDS011;50118;53.232;8.252;2022-07-12T01:33:02;3.22;;;2.20;;
58242;SDS011;50118;53.232;8.252;2022-07-12T01:35:29;2.53;;;2.00;;
58242;SDS011;50118;53.232;8.252;2022-07-12T01:38:01;2.83;;;2.25;;
58242;SDS011;50118;53.232;8.252;2022-07-12T01:40:26;2.63;;;1.98;;
58242;SDS011;50118;53.232;8.252;2022-07-12T01:42:52;3.30;;;2.05;;
58242;SDS011;50118;53.232;8.252;2022-07-12T01:45:21;2.88;;;2.00;;
58242;SDS011;50118;53.232;8.252;2022-07-12T01:47:47;3.10;;;2.00;;
58242;SDS011;50118;53.232;8.252;2022-07-12T01:50:48;3.10;;;2.00;;
58242;SDS011;50118;53.232;8.252;2022-07-12T01:53:16;3.10;;;2.17;;
58242;SDS011;50118;53.232;8.252;2022-07-12T01:55:42;3.05;;;2.15;;
58242;SDS011;50118;53.232;8.252;2022-07-12T01:58:08;2.40;;;1.98;;
58242;SDS011;50118;53.232;8.252;2022-07-12T02:00:34;4.25;;;2.20;;
58242;SDS011;50118;53.232;8.252;2022-07-12T02:03:10;3.00;;;2.15;;
58242;SDS011;50118;53.232;8.252;2022-07-12T02:09:03;2.70;;;2.10;;
58242;SDS011;50118;53.232;8.252;2022-07-12T02:11:30;2.70;;;1.90;;
58242;SDS011;50118;53.232;8.252;2022-07-12T02:13:56;3.20;;;2.03;;
58242;SDS011;50118;53.232;8.252;2022-07-12T02:16:22;2.72;;;2.05;;
58242;SDS011;50118;53.232;8.252;2022-07-12T02:19:11;3.40;;;2.00;;
58242;SDS011;50118;53.232;8.252;2022-07-12T02:21:40;3.00;;;1.95;;
58242;SDS011;50118;53.232;8.252;2022-07-12T02:24:06;3.08;;;2.10;;
58242;SDS011;50118;53.232;8.252;2022-07-12T02:26:32;3.92;;;2.00;;
58242;SDS011;50118;53.232;8.252;2022-07-12T02:28:59;3.40;;;2.30;;
58242;SDS011;50118;53.232;8.252;2022-07-12T02:31:25;2.67;;;2.00;;
58242;SDS011;50118;53.232;8.252;2022-07-12T02:33:51;2.60;;;2.00;;
58242;SDS011;50118;53.232;8.252;2022-07-12T02:36:17;3.05;;;1.90;;
58242;SDS011;50118;53.232;8.252;2022-07-12T02:38:42;3.63;;;2.03;;
58242;SDS011;50118;53.232;8.252;2022-07-12T02:44:13;2.63;;;1.83;;
58242;SDS011;50118;53.232;8.252;2022-07-12T02:46:41;2.88;;;2.00;;
58242;SDS011;50118;53.232;8.252;2022-07-12T02:49:07;2.80;;;2.10;;
58242;SDS011;50118;53.232;8.252;2022-07-12T02:52:04;2.97;;;2.30;;
58242;SDS011;50118;53.232;8.252;2022-07-12T02:54:30;2.42;;;1.90;;
58242;SDS011;50118;53.232;8.252;2022-07-12T02:59:46;2.15;;;1.80;;
58242;SDS011;50118;53.232;8.252;2022-07-12T03:02:12;2.50;;;1.90;;
58242;SDS011;50118;53.232;8.252;2022-07-12T03:04:37;3.50;;;2.08;;
58242;SDS011;50118;53.232;8.252;2022-07-12T03:07:03;2.67;;;2.00;;
58242;SDS011;50118;53.232;8.252;2022-07-12T03:09:29;3.03;;;2.30;;
58242;SDS011;50118;53.232;8.252;2022-07-12T03:11:55;2.22;;;1.70;;
58242;SDS011;50118;53.232;8.252;2022-07-12T03:14:21;2.90;;;1.83;;
58242;SDS011;50118;53.232;8.252;2022-07-12T03:16:46;3.42;;;2.20;;
58242;SDS011;50118;53.232;8.252;2022-07-12T03:19:12;2.42;;;1.92;;
58242;SDS011;50118;53.232;8.252;2022-07-12T03:21:37;2.97;;;2.08;;
58242;SDS011;50118;53.232;8.252;2022-07-12T03:27:02;4.13;;;2.05;;
58242;SDS011;50118;53.232;8.252;2022-07-12T03:29:43;2.83;;;1.90;;
58242;SDS011;50118;53.232;8.252;2022-07-12T03:32:09;2.40;;;1.90;;
58242;SDS011;50118;53.232;8.252;2022-07-12T03:34:35;2.45;;;1.88;;
58242;SDS011;50118;53.232;8.252;2022-07-12T03:37:03;2.70;;;2.00;;
58242;SDS011;50118;53.232;8.252;2022-07-12T03:39:29;3.90;;;2.10;;
58242;SDS011;50118;53.232;8.252;2022-07-12T03:41:55;2.70;;;2.00;;
58242;SDS011;50118;53.232;8.252;2022-07-12T03:50:31;3.45;;;2.45;;
58242;SDS011;50118;53.232;8.252;2022-07-12T03:53:16;3.63;;;2.13;;
58242;SDS011;50118;53.232;8.252;2022-07-12T03:55:42;3.40;;;2.05;;
58242;SDS011;50118;53.232;8.252;2022-07-12T03:58:07;2.35;;;1.80;;
58242;SDS011;50118;53.232;8.252;2022-07-12T04:00:51;3.70;;;1.92;;
58242;SDS011;50118;53.232;8.252;2022-07-12T04:03:16;2.67;;;2.00;;
58242;SDS011;50118;53.232;8.252;2022-07-12T04:05:42;4.18;;;2.10;;
58242;SDS011;50118;53.232;8.252;2022-07-12T04:08:08;4.72;;;1.95;;
58242;SDS011;50118;53.232;8.252;2022-07-12T04:13:27;3.88;;;2.00;;
58242;SDS011;50118;53.232;8.252;2022-07-12T04:15:52;3.10;;;2.20;;
58242;SDS011;50118;53.232;8.252;2022-07-12T04:18:18;3.42;;;2.50;;
58242;SDS011;50118;53.232;8.252;2022-07-12T04:20:52;4.05;;;2.55;;
58242;SDS011;50118;53.232;8.252;2022-07-12T04:23:18;4.60;;;3.10;;
58242;SDS011;50118;53.232;8.252;2022-07-12T04:25:43;3.15;;;2.40;;
58242;SDS011;50118;53.232;8.252;2022-07-12T04:28:09;3.50;;;2.60;;
58242;SDS011;50118;53.232;8.252;2022-07-12T04:30:35;4.10;;;3.00;;
58242;SDS011;50118;53.232;8.252;2022-07-12T04:33:01;4.82;;;2.75;;
58242;SDS011;50118;53.232;8.252;2022-07-12T04:35:39;4.80;;;3.15;;
58242;SDS011;50118;53.232;8.252;2022-07-12T04:38:04;5.13;;;3.08;;
58242;SDS011;50118;53.232;8.252;2022-07-12T04:40:30;3.40;;;2.38;;
58242;SDS011;50118;53.232;8.252;2022-07-12T04:42:56;4.40;;;3.13;;
58242;SDS011;50118;53.232;8.252;2022-07-12T04:45:27;5.10;;;3.30;;
58242;SDS011;50118;53.232;8.252;2022-07-12T04:47:55;4.25;;;3.00;;
58242;SDS011;50118;53.232;8.252;2022-07-12T04:50:21;5.20;;;3.15;;
58242;SDS011;50118;53.232;8.252;2022-07-12T04:52:46;3.53;;;2.47;;
58242;SDS011;50118;53.232;8.252;2022-07-12T04:55:15;3.75;;;2.40;;
58242;SDS011;50118;53.232;8.252;2022-07-12T04:57:40;3.50;;;2.55;;
58242;SDS011;50118;53.232;8.252;2022-07-12T05:00:07;5.32;;;3.50;;
58242;SDS011;50118;53.232;8.252;2022-07-12T05:02:33;3.80;;;2.65;;
58242;SDS011;50118;53.232;8.252;2022-07-12T05:04:59;6.40;;;3.25;;
58242;SDS011;50118;53.232;8.252;2022-07-12T05:07:25;3.90;;;3.00;;
58242;SDS011;50118;53.232;8.252;2022-07-12T05:09:50;4.47;;;3.25;;
58242;SDS011;50118;53.232;8.252;2022-07-12T05:12:16;4.63;;;3.40;;
58242;SDS011;50118;53.232;8.252;2022-07-12T05:20:46;4.47;;;3.10;;
58242;SDS011;50118;53.232;8.252;2022-07-12T05:23:11;5.28;;;3.70;;
58242;SDS011;50118;53.232;8.252;2022-07-12T05:25:40;4.80;;;3.50;;
58242;SDS011;50118;53.232;8.252;2022-07-12T05:28:05;3.97;;;2.90;;
58242;SDS011;50118;53.232;8.252;2022-07-12T05:30:34;3.83;;;2.90;;
58242;SDS011;50118;53.232;8.252;2022-07-12T05:41:35;4.22;;;3.05;;
58242;SDS011;50118;53.232;8.252;2022-07-12T05:44:14;6.95;;;3.35;;
58242;SDS011;50118;53.232;8.252;2022-07-12T05:47:31;4.28;;;2.97;;
58242;SDS011;50118;53.232;8.252;2022-07-12T05:52:06;3.60;;;2.70;;
58242;SDS011;50118;53.232;8.252;2022-07-12T05:54:50;5.45;;;3.20;;
58242;SDS011;50118;53.232;8.252;2022-07-12T05:57:16;3.75;;;2.55;;
58242;SDS011;50118;53.232;8.252;2022-07-12T05:59:51;4.47;;;2.90;;
58242;SDS011;50118;53.232;8.252;2022-07-12T06:02:19;4.32;;;3.08;;
58242;SDS011;50118;53.232;8.252;2022-07-12T06:04:47;4.70;;;3.00;;
58242;SDS011;50118;53.232;8.252;2022-07-12T06:07:13;4.25;;;2.70;;
58242;SDS011;50118;53.232;8.252;2022-07-12T06:09:38;4.82;;;2.83;;
58242;SDS011;50118;53.232;8.252;2022-07-12T06:12:10;3.90;;;2.95;;
58242;SDS011;50118;53.232;8.252;2022-07-12T06:14:36;3.60;;;2.45;;
58242;SDS011;50118;53.232;8.252;2022-07-12T06:17:02;3.50;;;2.58;;
58242;SDS011;50118;53.232;8.252;2022-07-12T06:19:28;4.60;;;2.90;;
58242;SDS011;50118;53.232;8.252;2022-07-12T06:21:57;4.13;;;2.80;;
58242;SDS011;50118;53.232;8.252;2022-07-12T06:24:22;6.53;;;3.13;;
58242;SDS011;50118;53.232;8.252;2022-07-12T06:26:48;4.68;;;2.95;;
58242;SDS011;50118;53.232;8.252;2022-07-12T06:29:13;6.50;;;2.97;;
58242;SDS011;50118;53.232;8.252;2022-07-12T06:31:39;7.43;;;2.88;;
58242;SDS011;50118;53.232;8.252;2022-07-12T06:37:07;4.35;;;2.80;;
58242;SDS011;50118;53.232;8.252;2022-07-12T06:39:43;4.95;;;2.72;;
58242;SDS011;50118;53.232;8.252;2022-07-12T06:42:09;4.93;;;3.17;;
58242;SDS011;50118;53.232;8.252;2022-07-12T06:44:35;4.65;;;2.90;;
58242;SDS011;50118;53.232;8.252;2022-07-12T06:47:01;4.95;;;2.65;;
58242;SDS011;50118;53.232;8.252;2022-07-12T06:49:27;4.72;;;2.63;;
58242;SDS011;50118;53.232;8.252;2022-07-12T06:51:55;3.60;;;2.53;;
58242;SDS011;50118;53.232;8.252;2022-07-12T06:54:29;2.92;;;2.25;;
58242;SDS011;50118;53.232;8.252;2022-07-12T06:56:54;4.88;;;2.70;;
58242;SDS011;50118;53.232;8.252;2022-07-12T06:59:20;2.92;;;2.10;;
58242;SDS011;50118;53.232;8.252;2022-07-12T07:02:24;2.58;;;1.98;;
58242;SDS011;50118;53.232;8.252;2022-07-12T07:04:50;3.10;;;2.30;;
58242;SDS011;50118;53.232;8.252;2022-07-12T07:07:15;3.85;;;2.45;;
58242;SDS011;50118;53.232;8.252;2022-07-12T07:09:41;4.78;;;2.90;;
58242;SDS011;50118;53.232;8.252;2022-07-12T07:12:06;3.53;;;2.60;;
58242;SDS011;50118;53.232;8.252;2022-07-12T07:14:32;4.82;;;2.90;;
58242;SDS011;50118;53.232;8.252;2022-07-12T07:16:58;4.68;;;3.10;;
58242;SDS011;50118;53.232;8.252;2022-07-12T07:19:24;5.13;;;4.60;;
58242;SDS011;50118;53.232;8.252;2022-07-12T07:21:51;4.95;;;4.20;;
58242;SDS011;50118;53.232;8.252;2022-07-12T07:24:17;4.28;;;3.88;;
58242;SDS011;50118;53.232;8.252;2022-07-12T07:26:42;5.60;;;4.90;;
58242;SDS011;50118;53.232;8.252;2022-07-12T07:29:08;5.50;;;4.90;;
58242;SDS011;50118;53.232;8.252;2022-07-12T07:31:52;6.78;;;4.60;;
58242;SDS011;50118;53.232;8.252;2022-07-12T07:34:17;4.70;;;4.20;;
58242;SDS011;50118;53.232;8.252;2022-07-12T07:36:43;4.82;;;3.63;;
58242;SDS011;50118;53.232;8.252;2022-07-12T07:39:08;4.47;;;3.60;;
58242;SDS011;50118;53.232;8.252;2022-07-12T07:41:34;4.32;;;2.90;;
58242;SDS011;50118;53.232;8.252;2022-07-12T07:44:00;3.92;;;2.90;;
58242;SDS011;50118;53.232;8.252;2022-07-12T07:46:25;4.05;;;2.70;;
58242;SDS011;50118;53.232;8.252;2022-07-12T07:48:51;4.25;;;2.60;;
58242;SDS011;50118;53.232;8.252;2022-07-12T07:51:16;3.10;;;2.30;;
58242;SDS011;50118;53.232;8.252;2022-07-12T07:53:42;5.38;;;2.33;;
58242;SDS011;50118;53.232;8.252;2022-07-12T07:56:07;2.45;;;1.90;;
58242;SDS011;50118;53.232;8.252;2022-07-12T07:58:32;3.78;;;2.00;;
58242;SDS011;50118;53.232;8.252;2022-07-12T08:00:58;2.63;;;2.00;;
58242;SDS011;50118;53.232;8.252;2022-07-12T08:03:23;2.30;;;1.70;;
58242;SDS011;50118;53.232;8.252;2022-07-12T08:05:50;2.58;;;1.80;;
58242;SDS011;50118;53.232;8.252;2022-07-12T08:08:16;3.00;;;1.80;;
58242;SDS011;50118;53.232;8.252;2022-07-12T08:10:42;3.90;;;2.30;;
58242;SDS011;50118;53.232;8.252;2022-07-12T08:13:08;2.97;;;1.98;;
58242;SDS011;50118;53.232;8.252;2022-07-12T08:15:34;3.30;;;2.50;;
58242;SDS011;50118;53.232;8.252;2022-07-12T08:17:59;4.00;;;2.60;;
58242;SDS011;50118;53.232;8.252;2022-07-12T08:20:25;3.67;;;2.42;;
58242;SDS011;50118;53.232;8.252;2022-07-12T08:22:51;3.65;;;2.75;;
58242;SDS011;50118;53.232;8.252;2022-07-12T08:25:16;3.65;;;3.00;;
58242;SDS011;50118;53.232;8.252;2022-07-12T08:27:42;3.92;;;3.10;;
58242;SDS011;50118;53.232;8.252;2022-07-12T08:30:08;3.88;;;2.83;;
58242;SDS011;50118;53.232;8.252;2022-07-12T08:32:35;4.80;;;3.13;;
58242;SDS011;50118;53.232;8.252;2022-07-12T08:35:01;4.38;;;3.08;;
58242;SDS011;50118;53.232;8.252;2022-07-12T08:37:26;5.40;;;3.50;;
58242;SDS011;50118;53.232;8.252;2022-07-12T08:39:52;5.05;;;3.42;;
58242;SDS011;50118;53.232;8.252;2022-07-12T08:42:17;4.20;;;3.22;;
58242;SDS011;50118;53.232;8.252;2022-07-12T08:50:09;4.55;;;3.17;;
58242;SDS011;50118;53.232;8.252;2022-07-12T08:52:39;5.63;;;3.00;;
58242;SDS011;50118;53.232;8.252;2022-07-12T08:57:55;4.45;;;3.05;;
58242;SDS011;50118;53.232;8.252;2022-07-12T09:00:26;3.20;;;2.55;;
58242;SDS011;50118;53.232;8.252;2022-07-12T09:02:56;3.95;;;2.40;;
58242;SDS011;50118;53.232;8.252;2022-07-12T09:05:29;3.20;;;2.20;;
58242;SDS011;50118;53.232;8.252;2022-07-12T09:10:34;3.42;;;2.13;;
58242;SDS011;50118;53.232;8.252;2022-07-12T09:13:01;2.40;;;2.17;;
58242;SDS011;50118;53.232;8.252;2022-07-12T09:15:26;2.60;;;1.90;;
58242;SDS011;50118;53.232;8.252;2022-07-12T09:18:03;2.55;;;2.00;;
58242;SDS011;50118;53.232;8.252;2022-07-12T09:20:30;4.40;;;2.40;;
58242;SDS011;50118;53.232;8.252;2022-07-12T09:23:04;2.75;;;1.95;;
58242;SDS011;50118;53.232;8.252;2022-07-12T09:25:39;2.45;;;1.83;;
58242;SDS011;50118;53.232;8.252;2022-07-12T09:28:10;3.42;;;1.88;;
58242;SDS011;50118;53.232;8.252;2022-07-12T09:30:36;2.80;;;1.80;;
58242;SDS011;50118;53.232;8.252;2022-07-12T09:33:04;2.33;;;1.70;;
58242;SDS011;50118;53.232;8.252;2022-07-12T09:40:58;2.72;;;2.00;;
58242;SDS011;50118;53.232;8.252;2022-07-12T09:43:24;3.63;;;2.10;;
58242;SDS011;50118;53.232;8.252;2022-07-12T09:45:51;3.08;;;2.17;;
58242;SDS011;50118;53.232;8.252;2022-07-12T09:48:16;2.72;;;1.70;;
58242;SDS011;50118;53.232;8.252;2022-07-12T09:50:46;2.38;;;1.70;;
58242;SDS011;50118;53.232;8.252;2022-07-12T09:53:19;2.53;;;1.80;;
58242;SDS011;50118;53.232;8.252;2022-07-12T09:55:52;2.90;;;1.80;;
58242;SDS011;50118;53.232;8.252;2022-07-12T09:58:21;2.85;;;2.03;;
58242;SDS011;50118;53.232;8.252;2022-07-12T10:00:52;2.90;;;1.73;;
58242;SDS011;50118;53.232;8.252;2022-07-12T10:03:22;3.83;;;1.48;;
58242;SDS011;50118;53.232;8.252;2022-07-12T10:05:51;2.83;;;2.03;;
58242;SDS011;50118;53.232;8.252;2022-07-12T10:08:18;2.63;;;2.03;;
58242;SDS011;50118;53.232;8.252;2022-07-12T10:10:44;2.72;;;1.42;;
58242;SDS011;50118;53.232;8.252;2022-07-12T10:13:11;2.03;;;1.40;;
58242;SDS011;50118;53.232;8.252;2022-07-12T10:15:36;2.65;;;1.80;;
58242;SDS011;50118;53.232;8.252;2022-07-12T10:18:03;1.60;;;1.30;;
58242;SDS011;50118;53.232;8.252;2022-07-12T10:20:30;1.65;;;1.20;;
58242;SDS011;50118;53.232;8.252;2022-07-12T10:23:26;1.80;;;1.50;;
58242;SDS011;50118;53.232;8.252;2022-07-12T10:25:45;1.83;;;1.50;;
58242;SDS011;50118;53.232;8.252;2022-07-12T10:28:12;1.95;;;1.63;;
58242;SDS011;50118;53.232;8.252;2022-07-12T10:30:56;2.35;;;1.88;;
58242;SDS011;50118;53.232;8.252;2022-07-12T10:33:22;1.90;;;1.50;;
58242;SDS011;50118;53.232;8.252;2022-07-12T10:36:07;2.85;;;1.77;;
58242;SDS011;50118;53.232;8.252;2022-07-12T10:38:33;2.42;;;1.65;;
58242;SDS011;50118;53.232;8.252;2022-07-12T10:41:21;2.15;;;1.50;;
58242;SDS011;50118;53.232;8.252;2022-07-12T10:44:04;1.05;;;1.00;;
58242;SDS011;50118;53.232;8.252;2022-07-12T10:46:30;1.52;;;1.00;;
58242;SDS011;50118;53.232;8.252;2022-07-12T10:49:31;2.65;;;1.30;;
58242;SDS011;50118;53.232;8.252;2022-07-12T10:54:34;2.03;;;1.15;;
58242;SDS011;50118;53.232;8.252;2022-07-12T10:57:00;2.75;;;1.17;;
58242;SDS011;50118;53.232;8.252;2022-07-12T10:59:26;1.27;;;0.90;;
58242;SDS011;50118;53.232;8.252;2022-07-12T11:01:52;1.00;;;0.90;;
58242;SDS011;50118;53.232;8.252;2022-07-12T11:04:20;0.88;;;0.82;;
58242;SDS011;50118;53.232;8.252;2022-07-12T11:06:46;1.65;;;1.00;;
58242;SDS011;50118;53.232;8.252;2022-07-12T11:09:12;1.20;;;1.08;;
58242;SDS011;50118;53.232;8.252;2022-07-12T11:11:47;1.05;;;0.90;;
58242;SDS011;50118;53.232;8.252;2022-07-12T11:16:50;0.80;;;0.80;;
58242;SDS011;50118;53.232;8.252;2022-07-12T11:19:22;1.33;;;0.93;;
58242;SDS011;50118;53.232;8.252;2022-07-12T11:21:49;2.05;;;1.27;;
58242;SDS011;50118;53.232;8.252;2022-07-12T11:24:23;1.08;;;0.88;;
58242;SDS011;50118;53.232;8.252;2022-07-12T11:26:48;0.60;;;0.60;;
58242;SDS011;50118;53.232;8.252;2022-07-12T11:29:14;0.52;;;0.52;;
58242;SDS011;50118;53.232;8.252;2022-07-12T11:31:40;2.00;;;0.77;;
58242;SDS011;50118;53.232;8.252;2022-07-12T11:34:05;0.90;;;0.80;;
58242;SDS011;50118;53.232;8.252;2022-07-12T11:36:31;1.17;;;0.90;;
58242;SDS011;50118;53.232;8.252;2022-07-12T11:38:58;0.60;;;0.60;;
58242;SDS011;50118;53.232;8.252;2022-07-12T11:41:25;1.52;;;0.70;;
58242;SDS011;50118;53.232;8.252;2022-07-12T11:43:51;0.60;;;0.60;;
58242;SDS011;50118;53.232;8.252;2022-07-12T11:46:16;1.52;;;0.75;;
58242;SDS011;50118;53.232;8.252;2022-07-12T11:48:43;0.82;;;0.60;;
58242;SDS011;50118;53.232;8.252;2022-07-12T11:51:09;1.95;;;0.82;;
58242;SDS011;50118;53.232;8.252;2022-07-12T11:53:37;0.90;;;0.75;;
58242;SDS011;50118;53.232;8.252;2022-07-12T11:56:04;0.70;;;0.60;;
58242;SDS011;50118;53.232;8.252;2022-07-12T11:58:31;0.70;;;0.70;;
58242;SDS011;50118;53.232;8.252;2022-07-12T12:01:03;0.55;;;0.45;;
58242;SDS011;50118;53.232;8.252;2022-07-12T12:03:29;0.65;;;0.40;;
58242;SDS011;50118;53.232;8.252;2022-07-12T12:05:57;1.00;;;0.45;;
58242;SDS011;50118;53.232;8.252;2022-07-12T12:08:23;1.05;;;0.40;;
58242;SDS011;50118;53.232;8.252;2022-07-12T12:10:59;0.70;;;0.47;;
58242;SDS011;50118;53.232;8.252;2022-07-12T12:13:28;1.70;;;0.50;;
58242;SDS011;50118;53.232;8.252;2022-07-12T12:15:58;0.47;;;0.47;;
58242;SDS011;50118;53.232;8.252;2022-07-12T12:18:33;0.67;;;0.30;;
58242;SDS011;50118;53.232;8.252;2022-07-12T12:21:01;0.75;;;0.40;;
58242;SDS011;50118;53.232;8.252;2022-07-12T12:23:30;0.60;;;0.40;;
58242;SDS011;50118;53.232;8.252;2022-07-12T12:26:09;0.50;;;0.50;;
58242;SDS011;50118;53.232;8.252;2022-07-12T12:28:50;0.40;;;0.40;;
58242;SDS011;50118;53.232;8.252;2022-07-12T12:31:17;1.45;;;0.40;;
58242;SDS011;50118;53.232;8.252;2022-07-12T12:33:51;1.50;;;0.40;;
58242;SDS011;50118;53.232;8.252;2022-07-12T12:36:22;0.80;;;0.40;;
58242;SDS011;50118;53.232;8.252;2022-07-12T12:38:59;0.50;;;0.50;;
58242;SDS011;50118;53.232;8.252;2022-07-12T12:41:28;0.30;;;0.30;;
58242;SDS011;50118;53.232;8.252;2022-07-12T12:44:01;1.38;;;0.50;;
58242;SDS011;50118;53.232;8.252;2022-07-12T12:49:49;0.52;;;0.40;;
58242;SDS011;50118;53.232;8.252;2022-07-12T12:52:16;0.70;;;0.45;;
58242;SDS011;50118;53.232;8.252;2022-07-12T12:54:42;0.63;;;0.50;;
58242;SDS011;50118;53.232;8.252;2022-07-12T12:57:09;1.02;;;0.40;;
58242;SDS011;50118;53.232;8.252;2022-07-12T12:59:36;0.63;;;0.40;;
58242;SDS011;50118;53.232;8.252;2022-07-12T13:02:02;0.90;;;0.60;;
58242;SDS011;50118;53.232;8.252;2022-07-12T13:04:29;1.33;;;0.40;;
58242;SDS011;50118;53.232;8.252;2022-07-12T13:06:55;0.90;;;0.60;;
58242;SDS011;50118;53.232;8.252;2022-07-12T13:09:21;0.60;;;0.60;;
58242;SDS011;50118;53.232;8.252;2022-07-12T13:11:47;1.00;;;0.57;;
58242;SDS011;50118;53.232;8.252;2022-07-12T13:14:13;3.33;;;0.90;;
58242;SDS011;50118;53.232;8.252;2022-07-12T13:16:39;0.95;;;0.68;;
58242;SDS011;50118;53.232;8.252;2022-07-12T13:19:05;1.80;;;0.70;;
58242;SDS011;50118;53.232;8.252;2022-07-12T13:21:30;1.15;;;0.60;;
58242;SDS011;50118;53.232;8.252;2022-07-12T13:23:56;1.70;;;0.70;;
58242;SDS011;50118;53.232;8.252;2022-07-12T13:26:21;1.52;;;0.70;;
58242;SDS011;50118;53.232;8.252;2022-07-12T13:28:47;0.90;;;0.60;;
58242;SDS011;50118;53.232;8.252;2022-07-12T13:31:13;0.68;;;0.60;;
58242;SDS011;50118;53.232;8.252;2022-07-12T13:33:39;1.92;;;0.60;;
58242;SDS011;50118;53.232;8.252;2022-07-12T13:36:04;1.67;;;0.82;;
58242;SDS011;50118;53.232;8.252;2022-07-12T13:38:30;0.73;;;0.63;;
58242;SDS011;50118;53.232;8.252;2022-07-12T13:40:55;0.98;;;0.80;;
58242;SDS011;50118;53.232;8.252;2022-07-12T13:43:21;2.83;;;1.00;;
58242;SDS011;50118;53.232;8.252;2022-07-12T13:45:46;1.50;;;0.98;;
58242;SDS011;50118;53.232;8.252;2022-07-12T13:48:15;1.00;;;0.90;;
58242;SDS011;50118;53.232;8.252;2022-07-12T13:50:40;1.40;;;0.70;;
58242;SDS011;50118;53.232;8.252;2022-07-12T13:53:05;0.95;;;0.90;;
58242;SDS011;50118;53.232;8.252;2022-07-12T13:55:32;0.95;;;0.90;;
58242;SDS011;50118;53.232;8.252;2022-07-12T13:57:58;0.80;;;0.80;;
58242;SDS011;50118;53.232;8.252;2022-07-12T14:00:25;1.38;;;0.90;;
58242;SDS011;50118;53.232;8.252;2022-07-12T14:02:51;1.13;;;0.80;;
58242;SDS011;50118;53.232;8.252;2022-07-12T14:05:16;0.80;;;0.80;;
58242;SDS011;50118;53.232;8.252;2022-07-12T14:07:42;1.20;;;0.90;;
58242;SDS011;50118;53.232;8.252;2022-07-12T14:10:09;0.88;;;0.82;;
58242;SDS011;50118;53.232;8.252;2022-07-12T14:12:36;1.40;;;0.80;;
58242;SDS011;50118;53.232;8.252;2022-07-12T14:15:02;2.22;;;0.90;;
58242;SDS011;50118;53.232;8.252;2022-07-12T14:20:03;1.17;;;1.08;;
58242;SDS011;50118;53.232;8.252;2022-07-12T14:22:29;1.60;;;1.30;;
58242;SDS011;50118;53.232;8.252;2022-07-12T14:24:55;1.30;;;1.20;;
58242;SDS011;50118;53.232;8.252;2022-07-12T14:27:21;1.80;;;1.20;;
58242;SDS011;50118;53.232;8.252;2022-07-12T14:29:47;1.30;;;1.20;;
58242;SDS011;50118;53.232;8.252;2022-07-12T14:32:12;2.50;;;1.30;;
58242;SDS011;50118;53.232;8.252;2022-07-12T14:34:38;1.30;;;1.20;;
58242;SDS011;50118;53.232;8.252;2022-07-12T14:37:03;3.28;;;1.88;;
58242;SDS011;50118;53.232;8.252;2022-07-12T14:39:28;1.65;;;1.30;;
58242;SDS011;50118;53.232;8.252;2022-07-12T14:41:54;2.22;;;1.40;;
58242;SDS011;50118;53.232;8.252;2022-07-12T14:44:20;1.60;;;1.30;;
58242;SDS011;50118;53.232;8.252;2022-07-12T14:46:46;2.22;;;1.40;;
58242;SDS011;50118;53.232;8.252;2022-07-12T14:49:11;2.13;;;1.60;;
58242;SDS011;50118;53.232;8.252;2022-07-12T14:51:37;1.30;;;1.20;;
58242;SDS011;50118;53.232;8.252;2022-07-12T14:54:02;1.85;;;1.35;;
58242;SDS011;50118;53.232;8.252;2022-07-12T14:56:28;1.77;;;1.30;;
58242;SDS011;50118;53.232;8.252;2022-07-12T14:58:53;2.22;;;1.45;;
58242;SDS011;50118;53.232;8.252;2022-07-12T15:01:19;1.92;;;1.35;;
58242;SDS011;50118;53.232;8.252;2022-07-12T15:03:44;2.45;;;1.40;;
58242;SDS011;50118;53.232;8.252;2022-07-12T15:06:10;1.75;;;1.20;;
58242;SDS011;50118;53.232;8.252;2022-07-12T15:08:35;1.67;;;1.38;;
58242;SDS011;50118;53.232;8.252;2022-07-12T15:11:01;1.38;;;1.27;;
58242;SDS011;50118;53.232;8.252;2022-07-12T15:13:30;1.30;;;1.20;;
58242;SDS011;50118;53.232;8.252;2022-07-12T15:15:55;1.75;;;1.48;;
58242;SDS011;50118;53.232;8.252;2022-07-12T15:18:21;2.75;;;1.45;;
58242;SDS011;50118;53.232;8.252;2022-07-12T15:20:46;2.28;;;1.40;;
58242;SDS011;50118;53.232;8.252;2022-07-12T15:23:12;1.50;;;1.40;;
58242;SDS011;50118;53.232;8.252;2022-07-12T15:25:37;1.85;;;1.40;;
58242;SDS011;50118;53.232;8.252;2022-07-12T15:28:03;1.77;;;1.40;;
58242;SDS011;50118;53.232;8.252;2022-07-12T15:30:29;2.33;;;1.50;;
58242;SDS011;50118;53.232;8.252;2022-07-12T15:32:54;1.38;;;1.25;;
58242;SDS011;50118;53.232;8.252;2022-07-12T15:35:21;1.45;;;1.35;;
58242;SDS011;50118;53.232;8.252;2022-07-12T15:37:47;1.40;;;1.30;;
58242;SDS011;50118;53.232;8.252;2022-07-12T15:40:12;1.92;;;1.33;;
58242;SDS011;50118;53.232;8.252;2022-07-12T15:42:37;1.42;;;1.30;;
58242;SDS011;50118;53.232;8.252;2022-07-12T15:45:03;2.65;;;1.58;;
58242;SDS011;50118;53.232;8.252;2022-07-12T15:47:29;2.22;;;1.48;;
58242;SDS011;50118;53.232;8.252;2022-07-12T15:49:54;1.75;;;1.35;;
58242;SDS011;50118;53.232;8.252;2022-07-12T15:52:20;1.60;;;1.48;;
58242;SDS011;50118;53.232;8.252;2022-07-12T15:55:04;6.70;;;2.03;;
58242;SDS011;50118;53.232;8.252;2022-07-12T15:57:37;2.63;;;1.38;;
58242;SDS011;50118;53.232;8.252;2022-07-12T16:00:03;2.15;;;1.45;;
58242;SDS011;50118;53.232;8.252;2022-07-12T16:02:31;1.42;;;1.30;;
58242;SDS011;50118;53.232;8.252;2022-07-12T16:04:56;2.03;;;1.70;;
58242;SDS011;50118;53.232;8.252;2022-07-12T16:07:25;1.98;;;1.30;;
58242;SDS011;50118;53.232;8.252;2022-07-12T16:09:51;1.77;;;1.38;;
58242;SDS011;50118;53.232;8.252;2022-07-12T16:12:18;2.95;;;1.40;;
58242;SDS011;50118;53.232;8.252;2022-07-12T16:14:44;2.85;;;1.40;;